Time;durP1;ratioP1;P1;durP2;ratioP2;P2;SDS_P1;SDS_P2;PMS_P1;PMS_P2;Temp;Humidity;BMP_temperature;BMP_pressure;BME280_temperature;BME280_humidity;BME280_pressure;Samples;Min_cycle;Max_cycle;Signal;HPM_P1;HPM_P2
2023/06/24 00:17:09;;;;;;;;;;;;;;;26.96;50.16;100435.56;41746940;28;21381;-81
2023/06/24 00:37:09;;;;;;;;;;;;;;;26.94;50.31;100415.44;41752510;28;19924;-81
2023/06/24 00:57:10;;;;;;;;;;;;;;;26.94;50.24;100389.75;41743153;28;19928;-81
2023/06/24 01:17:19;;;;;;;;;;;;;;;26.92;50.41;100365.13;41740839;28;20713;-82
2023/06/24 01:37:28;;;;;;;;;;;;;;;26.90;50.52;100335.22;41749302;28;19943;-82
2023/06/24 01:57:31;;;;;;;;;;;;;;;26.88;50.37;100334.56;41736726;28;20381;-82
2023/06/24 02:17:31;;;;;;;;;;;;;;;26.86;50.81;100333.06;41722068;28;20419;-76
2023/06/24 02:37:32;;;;;;;;;;;;;;;26.84;50.61;100349.16;41743376;28;19944;-77
2023/06/24 02:57:33;;;;;;;;;;;;;;;26.83;50.67;100348.31;41759020;28;19947;-82
2023/06/24 03:17:33;;;;;;;;;;;;;;;25.91;46.87;100387.50;41742321;28;19936;-78
2023/06/24 03:37:33;;;;;;;;;;;;;;;22.79;51.99;100380.25;41751518;28;19925;-80
2023/06/24 03:57:34;;;;;;;;;;;;;;;22.26;53.61;100439.13;41717774;28;19932;-77
2023/06/24 04:17:34;;;;;;;;;;;;;;;23.65;50.59;100446.03;41697889;28;19933;-77
2023/06/24 04:37:34;;;;;;;;;;;;;;;24.51;49.32;100431.47;41736807;28;19932;-81
2023/06/24 04:57:35;;;;;;;;;;;;;;;24.95;49.41;100444.28;41757875;28;19928;-76
2023/06/24 05:17:35;;;;;;;;;;;;;;;25.24;49.30;100443.34;41749867;28;19931;-77
2023/06/24 05:37:36;;;;;;;;;;;;;;;25.47;49.11;100466.91;41722339;28;19925;-77
2023/06/24 05:57:36;;;;;;;;;;;;;;;25.65;49.16;100478.41;41728527;28;20058;-76
2023/06/24 06:17:37;;;;;;;;;;;;;;;25.79;48.68;100505.41;41739282;28;20361;-77
2023/06/24 06:37:38;;;;;;;;;;;;;;;25.89;49.08;100528.25;41728815;28;20015;-77
2023/06/24 06:57:38;;;;;;;;;;;;;;;25.99;48.83;100527.41;41717015;28;20015;-76
2023/06/24 07:17:40;;;;;;;;;;;;;;;26.08;48.53;100517.75;41633755;28;1868102;-77
2023/06/24 07:37:50;;;;;;;;;;;;;;;26.15;48.75;100538.22;41768807;28;19932;-76
2023/06/24 07:57:50;;;;;;;;;;;;;;;26.20;49.01;100537.78;41742757;28;19929;-77
2023/06/24 08:17:52;;;;;;;;;;;;;;;26.26;48.88;100539.84;41746418;28;20832;-76
2023/06/24 08:37:52;;;;;;;;;;;;;;;26.31;49.21;100545.53;41753770;28;19932;-76
2023/06/24 08:57:52;;;;;;;;;;;;;;;26.40;49.20;100545.63;41769061;28;19932;-77
2023/06/24 09:17:52;;;;;;;;;;;;;;;26.44;49.43;100533.72;41764180;28;19928;-76
2023/06/24 09:37:54;;;;;;;;;;;;;;;26.50;49.28;100552.53;41720461;28;20027;-76
2023/06/24 09:57:54;;;;;;;;;;;;;;;26.56;49.37;100560.88;41718872;28;19974;-76
2023/06/24 10:17:54;;;;;;;;;;;;;;;26.61;49.08;100522.28;41730089;28;20015;-76
2023/06/24 10:37:59;;;;;;;;;;;;;;;26.66;49.08;100506.72;41740586;28;20389;-76
2023/06/24 10:58:10;;;;;;;;;;;;;;;26.73;48.96;100498.97;41757401;28;19929;-78
2023/06/24 11:18:10;;;;;;;;;;;;;;;26.81;49.26;100507.03;41774635;28;19925;-76
2023/06/24 11:38:10;;;;;;;;;;;;;;;26.94;49.04;100481.88;41767535;28;19936;-79
2023/06/24 11:58:18;;;;;;;;;;;;;;;27.07;49.06;100449.59;41758486;28;19929;-77
2023/06/24 12:18:19;;;;;;;;;;;;;;;27.20;49.24;100442.03;41732879;28;19932;-78
2023/06/24 12:38:19;;;;;;;;;;;;;;;27.25;48.99;100436.25;41718084;28;19933;-78
2023/06/24 12:58:22;;;;;;;;;;;;;;;27.33;48.93;100407.03;41703734;28;19960;-77
2023/06/24 13:18:22;;;;;;;;;;;;;;;27.47;49.04;100425.06;41712094;28;19929;-76
2023/06/24 13:38:30;;;;;;;;;;;;;;;27.59;49.00;100428.28;41720234;28;19928;-77
2023/06/24 13:58:30;;;;;;;;;;;;;;;27.66;48.96;100436.47;41740689;28;19929;-76
2023/06/24 14:18:34;;;;;;;;;;;;;;;27.78;48.90;100410.38;41731843;28;20382;-76
2023/06/24 14:38:34;;;;;;;;;;;;;;;27.80;48.82;100419.03;41755069;28;19933;-76
2023/06/24 14:58:35;;;;;;;;;;;;;;;27.86;48.86;100382.97;41776472;28;19928;-77
2023/06/24 15:18:43;;;;;;;;;;;;;;;27.88;48.64;100379.16;41767132;28;19936;-75
2023/06/24 15:38:43;;;;;;;;;;;;;;;27.93;48.70;100373.34;41744359;28;19940;-77
2023/06/24 15:58:44;;;;;;;;;;;;;;;27.92;48.79;100369.03;41749819;28;20577;-76
2023/06/24 16:18:44;;;;;;;;;;;;;;;27.80;48.65;100355.19;41747408;28;19939;-77
2023/06/24 16:38:44;;;;;;;;;;;;;;;27.71;49.08;100367.66;41763834;28;19929;-77
2023/06/24 16:58:45;;;;;;;;;;;;;;;27.68;48.91;100362.63;41756643;28;19921;-77
2023/06/24 17:18:45;;;;;;;;;;;;;;;27.62;49.09;100361.47;41762318;28;20301;-77
2023/06/24 17:38:45;;;;;;;;;;;;;;;27.54;48.58;100368.56;41742107;28;19924;-74
2023/06/24 17:58:46;;;;;;;;;;;;;;;27.29;46.98;100373.78;41726665;28;20448;-76
2023/06/24 18:18:46;;;;;;;;;;;;;;;27.30;47.47;100364.81;41721465;28;19925;-79
2023/06/24 18:38:46;;;;;;;;;;;;;;;27.35;46.74;100386.44;41713952;28;19943;-78
2023/06/24 18:58:48;;;;;;;;;;;;;;;27.38;46.19;100418.03;41712860;28;19932;-76
2023/06/24 19:18:49;;;;;;;;;;;;;;;27.38;45.68;100436.66;41739598;28;19974;-76
2023/06/24 19:38:49;;;;;;;;;;;;;;;27.38;44.88;100481.84;41746355;28;19939;-76
2023/06/24 19:58:50;;;;;;;;;;;;;;;27.32;44.86;100488.63;41753907;28;19943;-77
2023/06/24 20:18:52;;;;;;;;;;;;;;;27.23;44.97;100480.75;41753690;28;19932;-77
2023/06/24 20:38:53;;;;;;;;;;;;;;;27.13;45.30;100475.53;41729529;28;19995;-77
2023/06/24 20:58:53;;;;;;;;;;;;;;;27.06;45.51;100466.53;41701274;28;20006;-77
2023/06/24 21:18:54;;;;;;;;;;;;;;;26.97;45.35;100481.59;41751808;28;20289;-77
2023/06/24 21:38:54;;;;;;;;;;;;;;;26.91;45.78;100479.56;41747022;28;20362;-76
2023/06/24 21:58:55;;;;;;;;;;;;;;;26.87;45.72;100480.81;41762179;28;19952;-77
2023/06/24 22:18:55;;;;;;;;;;;;;;;26.80;46.51;100478.78;41746245;28;19924;-76
2023/06/24 22:38:56;;;;;;;;;;;;;;;26.76;46.17;100487.25;41753703;28;20037;-75
2023/06/24 22:58:57;;;;;;;;;;;;;;;26.73;46.11;100480.38;41759207;28;19925;-77
2023/06/24 23:18:57;;;;;;;;;;;;;;;26.67;47.20;100465.91;41773417;28;20445;-76
2023/06/24 23:38:58;;;;;;;;;;;;;;;26.66;47.66;100450.94;41754239;28;19925;-78
2023/06/24 23:58:58;;;;;;;;;;;;;;;26.64;48.28;100433.50;41762716;28;19924;-76
